createdAt,value
2019-03-18T00:00:44.431Z,97966.33
2019-03-18T00:03:16.407Z,97960.38
2019-03-18T00:05:49.519Z,97951.83
2019-03-18T00:08:21.522Z,97951.64
2019-03-18T00:10:53.797Z,97943.14
2019-03-18T00:13:25.775Z,97947.80
2019-03-18T00:15:57.791Z,97948.35
2019-03-18T00:18:29.743Z,97950.89
2019-03-18T00:21:01.762Z,97947.66
2019-03-18T00:23:33.719Z,97955.41
2019-03-18T00:26:05.694Z,97957.95
2019-03-18T00:28:37.679Z,97950.66
2019-03-18T00:31:09.817Z,97945.88
2019-03-18T00:33:41.771Z,97959.02
2019-03-18T00:36:13.746Z,97958.05
2019-03-18T00:38:45.726Z,97958.07
2019-03-18T00:41:17.708Z,97967.49
2019-03-18T00:43:49.688Z,97966.08
2019-03-18T00:46:21.665Z,97958.36
2019-03-18T00:48:53.628Z,97955.95
2019-03-18T00:51:25.605Z,97955.08
2019-03-18T00:53:57.558Z,97945.17
2019-03-18T00:56:29.548Z,97949.39
2019-03-18T00:59:01.508Z,97935.03
2019-03-18T01:01:35.693Z,97933.99
2019-03-18T01:04:07.678Z,97938.84
2019-03-18T01:06:39.664Z,97941.60
2019-03-18T01:09:11.622Z,97938.91
2019-03-18T01:11:43.582Z,97941.53
2019-03-18T01:14:15.533Z,97943.19
2019-03-18T01:16:47.526Z,97946.58
2019-03-18T01:19:19.498Z,97944.22
2019-03-18T01:21:53.265Z,97945.28
2019-03-18T01:24:25.243Z,97950.16
2019-03-18T01:26:57.202Z,97958.00
2019-03-18T01:29:29.225Z,97944.86
2019-03-18T01:32:01.171Z,97943.13
2019-03-18T01:34:33.166Z,97940.84
2019-03-18T01:37:05.117Z,97934.73
2019-03-18T01:39:37.088Z,97931.24
2019-03-18T01:42:09.063Z,97934.20
2019-03-18T01:44:41.080Z,97928.13
2019-03-18T01:47:13.015Z,97930.19
2019-03-18T01:49:45.016Z,97923.70
2019-03-18T01:52:16.982Z,97923.62
2019-03-18T01:54:48.988Z,97925.06
2019-03-18T01:57:20.964Z,97922.43
2019-03-18T01:59:52.935Z,97921.52
2019-03-18T02:02:24.988Z,97927.30
2019-03-18T02:04:56.956Z,97925.39
2019-03-18T02:07:28.884Z,97916.46
2019-03-18T02:10:00.887Z,97923.00
2019-03-18T02:12:32.853Z,97924.66
2019-03-18T02:15:05.401Z,97931.56
2019-03-18T02:17:37.349Z,97926.59
2019-03-18T02:20:09.349Z,97933.32
2019-03-18T02:22:41.298Z,97927.02
2019-03-18T02:25:13.283Z,97929.44
2019-03-18T02:27:45.247Z,97921.42
2019-03-18T02:30:17.856Z,97922.59
2019-03-18T02:32:49.930Z,97918.44
2019-03-18T02:35:21.906Z,97915.49
2019-03-18T02:37:53.850Z,97923.56
2019-03-18T02:40:25.804Z,97919.17
2019-03-18T02:42:57.756Z,97916.95
2019-03-18T02:45:29.709Z,97916.92
2019-03-18T02:48:01.687Z,97920.50
2019-03-18T02:50:33.633Z,97922.39
2019-03-18T02:53:05.629Z,97926.86
2019-03-18T02:55:37.773Z,97927.60
2019-03-18T02:58:09.726Z,97934.44
2019-03-18T03:00:41.689Z,97937.16
2019-03-18T03:03:13.641Z,97943.73
2019-03-18T03:05:45.620Z,97949.52
2019-03-18T03:08:17.593Z,97948.44
2019-03-18T03:10:49.586Z,97951.77
2019-03-18T03:13:21.612Z,97947.73
2019-03-18T03:15:53.597Z,97952.41
2019-03-18T03:18:25.569Z,97947.73
2019-03-18T03:20:57.523Z,97950.99
2019-03-18T03:23:29.497Z,97960.88
2019-03-18T03:26:01.537Z,97960.63
2019-03-18T03:28:33.523Z,97953.80
2019-03-18T03:31:05.482Z,97957.69
2019-03-18T03:33:37.641Z,97956.03
2019-03-18T03:36:09.769Z,97954.09
2019-03-18T03:38:42.248Z,97963.85
2019-03-18T03:41:17.637Z,97966.02
2019-03-18T03:43:48.059Z,97960.84
2019-03-18T03:46:20.056Z,97961.59
2019-03-18T03:48:52.047Z,97968.06
2019-03-18T03:51:24.018Z,97977.19
2019-03-18T03:53:56.011Z,97986.94
2019-03-18T03:56:28.062Z,97993.04
2019-03-18T03:59:00.033Z,97988.66
2019-03-18T04:01:31.980Z,97995.53
2019-03-18T04:04:04.170Z,97990.95
2019-03-18T04:06:36.118Z,97998.57
2019-03-18T04:09:08.093Z,97997.83
2019-03-18T04:11:40.043Z,97989.19
2019-03-18T04:14:12.228Z,97985.27
2019-03-18T04:16:55.850Z,97993.02
2019-03-18T04:19:18.128Z,98001.02
2019-03-18T04:21:50.998Z,97993.80
2019-03-18T04:24:23.195Z,97990.71
2019-03-18T04:26:55.095Z,97999.33
2019-03-18T04:29:27.080Z,98001.17
2019-03-18T04:31:59.062Z,97997.72
2019-03-18T04:34:31.045Z,98002.44
2019-03-18T04:37:03.007Z,98002.09
2019-03-18T04:39:34.969Z,98009.07
2019-03-18T04:42:06.919Z,98006.24
2019-03-18T04:44:38.904Z,98003.30
2019-03-18T04:47:14.523Z,97998.23
2019-03-18T04:49:44.741Z,97997.08
2019-03-18T04:52:16.726Z,97996.84
2019-03-18T04:54:48.788Z,97999.22
2019-03-18T04:57:20.741Z,98000.98
2019-03-18T04:59:52.891Z,98006.84
2019-03-18T05:02:24.872Z,98002.97
2019-03-18T05:04:56.836Z,97999.01
2019-03-18T05:07:28.779Z,98003.84
2019-03-18T05:10:00.775Z,98004.64
2019-03-18T05:12:32.728Z,98012.50
2019-03-18T05:15:05.153Z,98005.36
2019-03-18T05:17:37.101Z,98011.84
2019-03-18T05:20:10.245Z,98019.70
2019-03-18T05:22:42.206Z,98021.92
2019-03-18T05:25:14.263Z,98030.55
2019-03-18T05:27:46.246Z,98030.03
2019-03-18T05:30:18.229Z,98038.66
2019-03-18T05:32:50.173Z,98042.22
2019-03-18T05:35:22.202Z,98044.50
2019-03-18T05:37:54.165Z,98041.84
2019-03-18T05:40:26.131Z,98051.23
2019-03-18T05:42:58.127Z,98051.58
2019-03-18T05:45:30.073Z,98058.68
2019-03-18T05:48:02.054Z,98061.55
2019-03-18T05:50:34.004Z,98068.28
2019-03-18T05:53:07.085Z,98076.05
2019-03-18T05:55:39.003Z,98077.48
2019-03-18T05:58:10.971Z,98074.59
2019-03-18T06:00:43.027Z,98072.94
2019-03-18T06:03:15.018Z,98074.94
2019-03-18T06:05:46.956Z,98083.57
2019-03-18T06:08:18.963Z,98082.94
2019-03-18T06:10:51.244Z,98090.55
2019-03-18T06:13:23.250Z,98088.40
2019-03-18T06:15:55.231Z,98085.70
2019-03-18T06:18:27.216Z,98076.45
2019-03-18T06:20:59.218Z,98083.52
2019-03-18T06:23:31.184Z,98088.08
2019-03-18T06:26:03.254Z,98093.09
2019-03-18T06:28:35.237Z,98100.04
2019-03-18T06:31:07.214Z,98102.06
2019-03-18T06:33:39.193Z,98116.01
2019-03-18T06:36:11.150Z,98114.44
2019-03-18T06:38:43.179Z,98120.14
2019-03-18T06:41:15.124Z,98127.89
2019-03-18T06:43:47.110Z,98133.78
2019-03-18T06:46:19.040Z,98134.61
2019-03-18T06:48:51.008Z,98136.80
2019-03-18T06:51:23.075Z,98130.71
2019-03-18T06:56:40.358Z,98137.91
2019-03-18T06:59:12.356Z,98146.31
2019-03-18T07:01:44.324Z,98150.13
2019-03-18T07:04:16.302Z,98158.98
2019-03-18T07:06:48.263Z,98161.37
2019-03-18T07:09:20.249Z,98168.50
2019-03-18T07:11:52.195Z,98168.83
2019-03-18T07:14:24.162Z,98165.30
2019-03-18T07:16:56.132Z,98161.50
2019-03-18T07:19:28.097Z,98166.75
2019-03-18T07:22:00.055Z,98171.34
2019-03-18T07:24:32.034Z,98179.52
2019-03-18T07:27:03.991Z,98173.16
2019-03-18T07:29:35.949Z,98180.02
2019-03-18T07:32:07.958Z,98179.03
2019-03-18T07:34:39.907Z,98182.85
2019-03-18T07:37:11.908Z,98189.67
2019-03-18T07:39:43.836Z,98194.48
2019-03-18T07:42:35.284Z,98199.81
2019-03-18T07:45:08.149Z,98198.31
2019-03-18T07:47:40.161Z,98202.36
2019-03-18T07:50:12.134Z,98207.43
2019-03-18T07:52:44.105Z,98209.00
2019-03-18T07:55:16.062Z,98210.99
2019-03-18T07:57:48.055Z,98216.16
2019-03-18T08:00:20.008Z,98215.76
2019-03-18T08:02:51.975Z,98212.43
2019-03-18T08:05:23.938Z,98214.48
2019-03-18T08:07:55.914Z,98216.48
2019-03-18T08:10:27.880Z,98220.45
2019-03-18T08:12:59.859Z,98229.97
2019-03-18T08:15:31.807Z,98230.41
2019-03-18T08:18:03.795Z,98237.64
2019-03-18T08:20:35.732Z,98241.45
2019-03-18T08:23:07.710Z,98244.52
2019-03-18T08:25:39.643Z,98249.73
2019-03-18T08:28:11.610Z,98255.52
2019-03-18T08:30:43.553Z,98257.20
2019-03-18T08:33:15.546Z,98254.87
2019-03-18T08:35:47.503Z,98260.48
2019-03-18T08:38:19.489Z,98264.92
2019-03-18T08:40:51.442Z,98266.83
2019-03-18T08:43:23.430Z,98257.06
2019-03-18T08:45:55.460Z,98260.23
2019-03-18T08:48:27.371Z,98251.59
2019-03-18T08:50:59.326Z,98255.24
2019-03-18T08:53:31.285Z,98257.86
2019-03-18T08:56:03.272Z,98256.02
2019-03-18T08:58:35.255Z,98258.07
2019-03-18T09:01:07.212Z,98256.97
2019-03-18T09:03:39.169Z,98244.56
2019-03-18T09:06:11.152Z,98245.93
2019-03-18T09:08:43.197Z,98253.92
2019-03-18T09:11:15.148Z,98244.78
2019-03-18T09:13:47.121Z,98253.81
2019-03-18T09:16:19.066Z,98244.67
2019-03-18T09:18:51.075Z,98246.91
2019-03-18T09:21:23.028Z,98253.09
2019-03-18T09:23:55.118Z,98254.78
2019-03-18T09:26:27.103Z,98260.24
2019-03-18T09:28:59.088Z,98260.23
2019-03-18T09:31:31.067Z,98262.45
2019-03-18T09:34:03.035Z,98262.35
2019-03-18T09:36:35.012Z,98257.34
2019-03-18T09:39:07.418Z,98253.61
2019-03-18T09:41:41.835Z,98252.05
2019-03-18T09:44:13.766Z,98248.05
2019-03-18T09:46:45.749Z,98264.72
2019-03-18T09:49:21.994Z,98264.30
2019-03-18T09:51:51.627Z,98262.55
2019-03-18T09:54:23.552Z,98265.22
2019-03-18T09:56:55.507Z,98267.52
2019-03-18T09:59:27.485Z,98274.05
2019-03-18T10:01:59.427Z,98282.67
2019-03-18T10:04:31.385Z,98286.27
2019-03-18T10:07:03.344Z,98292.61
2019-03-18T10:09:35.320Z,98296.50
2019-03-18T10:12:07.297Z,98296.70
2019-03-18T10:14:58.727Z,98306.88
2019-03-18T10:17:30.759Z,98306.88
2019-03-18T10:20:02.884Z,98304.61
2019-03-18T10:22:36.032Z,98306.84
2019-03-18T10:25:08.744Z,98307.23
2019-03-18T10:27:40.702Z,98307.89
2019-03-18T10:30:12.735Z,98312.01
2019-03-18T10:32:44.713Z,98301.84
2019-03-18T10:35:16.666Z,98295.34
2019-03-18T10:37:48.673Z,98294.81
2019-03-18T10:40:20.649Z,98296.42
2019-03-18T10:42:52.591Z,98297.90
2019-03-18T10:45:25.965Z,98286.84
2019-03-18T10:47:58.534Z,98292.89
2019-03-18T10:50:30.462Z,98285.84
2019-03-18T10:53:04.407Z,98286.54
2019-03-18T10:55:36.579Z,98281.50
2019-03-18T10:58:08.552Z,98288.23
2019-03-18T11:00:40.534Z,98271.80
2019-03-18T11:03:12.525Z,98292.07
2019-03-18T11:05:44.485Z,98289.19
2019-03-18T11:08:16.485Z,98283.03
2019-03-18T11:10:48.453Z,98270.03
2019-03-18T11:13:20.462Z,98275.73
2019-03-18T11:15:52.431Z,98279.97
2019-03-18T11:18:24.423Z,98276.77
2019-03-18T11:20:56.373Z,98276.98
2019-03-18T11:23:28.394Z,98275.03
2019-03-18T11:26:00.342Z,98281.50
2019-03-18T11:28:32.343Z,98291.61
2019-03-18T11:31:04.345Z,98294.73
2019-03-18T11:33:36.355Z,98297.92
2019-03-18T11:36:08.333Z,98303.17
2019-03-18T11:38:40.310Z,98306.66
2019-03-18T11:41:12.259Z,98299.61
2019-03-18T11:43:44.264Z,98295.15
2019-03-18T11:46:16.250Z,98297.94
2019-03-18T11:48:48.195Z,98304.39
2019-03-18T11:51:20.191Z,98304.30
2019-03-18T11:53:52.162Z,98302.83
2019-03-18T11:56:24.168Z,98302.98
2019-03-18T11:58:56.216Z,98292.28
2019-03-18T12:01:28.240Z,98288.55
2019-03-18T12:04:00.254Z,98283.87
2019-03-18T12:06:32.253Z,98283.43
2019-03-18T12:09:05.591Z,98278.49
2019-03-18T12:11:37.601Z,98278.05
2019-03-18T12:14:09.623Z,98281.62
2019-03-18T12:16:41.639Z,98288.81
2019-03-18T12:19:13.623Z,98276.91
2019-03-18T12:21:45.631Z,98278.93
2019-03-18T12:24:17.644Z,98277.36
2019-03-18T12:26:49.632Z,98284.38
2019-03-18T12:29:21.605Z,98281.75
2019-03-18T12:31:53.587Z,98285.11
2019-03-18T12:34:25.665Z,98285.75
2019-03-18T12:36:57.668Z,98286.05
2019-03-18T12:39:29.656Z,98273.47
2019-03-18T12:42:01.649Z,98284.50
2019-03-18T12:44:33.635Z,98281.66
2019-03-18T12:47:05.630Z,98278.41
2019-03-18T12:49:37.607Z,98270.47
2019-03-18T12:52:09.750Z,98275.08
2019-03-18T12:54:41.725Z,98267.62
2019-03-18T12:57:13.730Z,98268.41
2019-03-18T12:59:45.749Z,98268.11
2019-03-18T13:02:17.776Z,98269.72
2019-03-18T13:04:49.720Z,98274.92
2019-03-18T13:07:21.771Z,98274.74
2019-03-18T13:09:53.725Z,98263.61
2019-03-18T13:12:25.718Z,98274.05
2019-03-18T13:14:57.676Z,98274.05
2019-03-18T13:17:29.655Z,98271.87
2019-03-18T13:20:01.695Z,98263.73
2019-03-18T13:22:33.671Z,98266.16
2019-03-18T13:25:06.021Z,98273.35
2019-03-18T13:27:38.036Z,98255.14
2019-03-18T13:30:15.204Z,98264.31
2019-03-18T13:32:46.026Z,98263.30
2019-03-18T13:35:18.013Z,98263.83
2019-03-18T13:37:50.036Z,98263.83
2019-03-18T13:40:22.098Z,98248.66
2019-03-18T13:42:54.105Z,98248.66
2019-03-18T13:45:26.072Z,98256.78
2019-03-18T13:47:58.088Z,98268.56
2019-03-18T13:50:30.084Z,98267.39
2019-03-18T13:53:02.102Z,98268.72
2019-03-18T13:55:34.145Z,98277.78
2019-03-18T13:58:06.208Z,98276.40
2019-03-18T14:00:38.232Z,98280.16
2019-03-18T14:03:10.214Z,98281.16
2019-03-18T14:05:42.217Z,98284.00
2019-03-18T14:08:14.189Z,98287.25
2019-03-18T14:10:46.197Z,98286.92
2019-03-18T14:13:18.173Z,98283.86
2019-03-18T14:15:50.170Z,98284.94
2019-03-18T14:18:22.155Z,98281.58
2019-03-18T14:20:54.196Z,98266.55
2019-03-18T14:23:26.195Z,98282.96
2019-03-18T14:25:58.253Z,98284.03
2019-03-18T14:28:30.261Z,98279.21
2019-03-18T14:31:02.260Z,98284.33
2019-03-18T14:33:34.261Z,98284.80
2019-03-18T14:36:06.273Z,98285.30
2019-03-18T14:38:38.620Z,98280.27
2019-03-18T14:41:10.705Z,98286.07
2019-03-18T14:43:42.670Z,98281.02
2019-03-18T14:46:14.700Z,98281.64
2019-03-18T14:48:46.650Z,98277.58
2019-03-18T14:51:18.624Z,98279.66
2019-03-18T14:53:50.603Z,98277.67
2019-03-18T14:56:22.601Z,98274.28
2019-03-18T14:58:54.543Z,98277.64
2019-03-18T15:01:26.566Z,98286.41
2019-03-18T15:03:58.590Z,98284.03
2019-03-18T15:06:30.611Z,98276.80
2019-03-18T15:09:03.632Z,98280.82
2019-03-18T15:11:37.064Z,98283.56
2019-03-18T15:14:09.060Z,98292.23
2019-03-18T15:16:41.077Z,98295.56
2019-03-18T15:19:13.085Z,98297.42
2019-03-18T15:21:57.511Z,98303.05
2019-03-18T15:24:19.009Z,98309.13
2019-03-18T15:26:51.007Z,98323.06
2019-03-18T15:29:23.016Z,98328.11
2019-03-18T15:31:55.094Z,98340.92
2019-03-18T15:34:27.101Z,98340.92
2019-03-18T15:36:59.184Z,98353.86
2019-03-18T15:39:31.178Z,98350.83
2019-03-18T15:42:03.189Z,98349.77
2019-03-18T15:44:36.978Z,98356.28
2019-03-18T15:47:09.076Z,98359.53
2019-03-18T15:49:41.167Z,98367.71
2019-03-18T15:52:14.974Z,98376.38
2019-03-18T15:54:53.695Z,98374.14
2019-03-18T15:57:29.402Z,98379.94
2019-03-18T15:59:54.794Z,98388.78
2019-03-18T16:02:26.805Z,98390.67
2019-03-18T16:04:58.792Z,98389.66
2019-03-18T16:07:30.768Z,98402.75
2019-03-18T16:10:02.976Z,98397.48
2019-03-18T16:12:35.008Z,98396.20
2019-03-18T16:15:07.990Z,98397.88
2019-03-18T16:17:41.634Z,98399.63
2019-03-18T16:20:14.003Z,98402.14
2019-03-18T16:22:45.966Z,98408.86
2019-03-18T16:25:17.963Z,98406.84
2019-03-18T16:27:49.952Z,98409.38
2019-03-18T16:30:21.990Z,98405.06
2019-03-18T16:32:53.969Z,98402.06
2019-03-18T16:35:25.959Z,98407.70
2019-03-18T16:37:58.499Z,98407.47
2019-03-18T16:40:30.470Z,98416.61
2019-03-18T16:43:02.427Z,98410.34
2019-03-18T16:45:34.433Z,98424.42
2019-03-18T16:48:06.445Z,98426.34
2019-03-18T16:50:38.477Z,98408.19
2019-03-18T16:53:10.547Z,98416.75
2019-03-18T16:55:42.583Z,98417.53
2019-03-18T16:58:14.722Z,98420.98
2019-03-18T17:00:46.786Z,98429.92
2019-03-18T17:03:18.900Z,98430.40
2019-03-18T17:05:51.016Z,98439.20
2019-03-18T17:08:23.008Z,98444.28
2019-03-18T17:10:55.125Z,98449.20
2019-03-18T17:13:27.110Z,98459.41
2019-03-18T17:15:59.136Z,98457.72
2019-03-18T17:18:31.171Z,98465.52
2019-03-18T17:21:03.277Z,98475.70
2019-03-18T17:23:35.269Z,98479.61
2019-03-18T17:26:07.283Z,98474.06
2019-03-18T17:28:39.309Z,98482.30
2019-03-18T17:31:11.426Z,98485.24
2019-03-18T17:33:43.441Z,98486.66
2019-03-18T17:36:15.505Z,98504.23
2019-03-18T17:38:47.532Z,98500.53
2019-03-18T17:41:19.568Z,98495.05
2019-03-18T17:43:51.789Z,98491.77
2019-03-18T17:46:23.896Z,98492.58
2019-03-18T17:48:55.966Z,98503.77
2019-03-18T17:51:27.954Z,98517.50
2019-03-18T17:54:00.134Z,98521.03
2019-03-18T17:56:32.120Z,98536.56
2019-03-18T17:59:04.232Z,98555.10
2019-03-18T18:01:36.273Z,98552.80
2019-03-18T18:04:08.351Z,98566.64
2019-03-18T18:06:40.417Z,98572.89
2019-03-18T18:09:12.516Z,98575.84
2019-03-18T18:11:44.544Z,98597.09
2019-03-18T18:14:16.563Z,98604.22
2019-03-18T18:16:48.639Z,98608.39
2019-03-18T18:19:20.710Z,98610.30
2019-03-18T18:21:52.777Z,98611.94
2019-03-18T18:24:24.839Z,98620.27
2019-03-18T18:26:56.869Z,98632.30
2019-03-18T18:29:28.962Z,98627.46
2019-03-18T18:32:00.965Z,98632.61
2019-03-18T18:34:33.006Z,98637.39
2019-03-18T18:37:06.788Z,98629.78
2019-03-18T18:39:40.713Z,98628.13
2019-03-18T18:42:14.491Z,98627.91
2019-03-18T18:44:46.510Z,98628.39
2019-03-18T18:47:20.817Z,98619.22
2019-03-18T18:49:52.934Z,98617.77
2019-03-18T18:52:25.008Z,98613.55
2019-03-18T18:54:57.074Z,98610.25
2019-03-18T18:57:29.146Z,98611.13
2019-03-18T19:00:01.243Z,98587.79
2019-03-18T19:02:33.244Z,98587.50
2019-03-18T19:05:06.184Z,98593.44
2019-03-18T19:07:38.219Z,98592.43
2019-03-18T19:10:10.838Z,98594.05
2019-03-18T19:12:43.289Z,98596.59
2019-03-18T19:15:17.084Z,98592.94
2019-03-18T19:17:49.102Z,98596.70
2019-03-18T19:20:21.184Z,98607.50
2019-03-18T19:22:53.236Z,98605.46
2019-03-18T19:25:25.325Z,98609.34
2019-03-18T19:27:57.426Z,98617.02
2019-03-18T19:30:29.683Z,98621.75
2019-03-18T19:33:01.877Z,98631.20
2019-03-18T19:35:33.947Z,98627.51
2019-03-18T19:38:06.008Z,98622.44
2019-03-18T19:40:38.123Z,98623.55
2019-03-18T19:43:12.705Z,98627.77
2019-03-18T19:45:44.819Z,98639.66
2019-03-18T19:48:16.835Z,98637.84
2019-03-18T19:50:48.893Z,98648.97
2019-03-18T19:53:20.972Z,98640.00
2019-03-18T19:55:52.981Z,98644.52
2019-03-18T19:58:25.164Z,98645.28
2019-03-18T20:00:57.192Z,98651.23
2019-03-18T20:03:29.291Z,98652.13
2019-03-18T20:06:01.300Z,98661.65
2019-03-18T20:08:33.367Z,98665.31
2019-03-18T20:11:05.442Z,98683.88
2019-03-18T20:13:37.465Z,98704.07
2019-03-18T20:16:09.533Z,98709.70
2019-03-18T20:18:41.605Z,98707.22
2019-03-18T20:21:13.658Z,98715.14
2019-03-18T20:23:45.715Z,98714.94
2019-03-18T20:26:17.748Z,98709.06
2019-03-18T20:28:49.784Z,98710.31
2019-03-18T20:31:25.990Z,98703.72
2019-03-18T20:33:55.845Z,98699.42
2019-03-18T20:36:27.864Z,98702.34
2019-03-18T20:38:59.979Z,98684.65
2019-03-18T20:41:32.040Z,98658.75
2019-03-18T20:44:04.227Z,98662.09
2019-03-18T20:46:36.357Z,98694.94
2019-03-18T20:49:08.369Z,98712.48
2019-03-18T20:51:40.393Z,98707.91
2019-03-18T20:54:12.517Z,98705.20
2019-03-18T20:56:44.509Z,98706.60
2019-03-18T20:59:16.523Z,98695.75
2019-03-18T21:01:48.536Z,98692.33
2019-03-18T21:04:20.566Z,98687.14
2019-03-18T21:06:52.566Z,98680.72
2019-03-18T21:09:24.634Z,98693.16
2019-03-18T21:11:56.641Z,98701.03
2019-03-18T21:14:28.741Z,98702.61
2019-03-18T21:17:00.827Z,98701.28
2019-03-18T21:19:33.183Z,98706.25
2019-03-18T21:22:05.303Z,98713.23
2019-03-18T21:24:37.317Z,98722.98
2019-03-18T21:27:09.358Z,98724.12
2019-03-18T21:29:41.457Z,98724.25
2019-03-18T21:32:13.469Z,98728.93
2019-03-18T21:34:45.535Z,98728.26
2019-03-18T21:37:17.592Z,98727.63
2019-03-18T21:39:49.640Z,98733.21
2019-03-18T21:42:21.661Z,98734.56
2019-03-18T21:44:53.611Z,98736.86
2019-03-18T21:47:25.735Z,98739.25
2019-03-18T21:49:58.440Z,98734.71
2019-03-18T21:52:34.807Z,98734.88
2019-03-18T21:55:06.819Z,98737.33
2019-03-18T21:57:38.841Z,98737.55
2019-03-18T22:00:12.556Z,98742.77
2019-03-18T22:02:44.715Z,98751.16
2019-03-18T22:05:16.748Z,98758.74
2019-03-18T22:07:48.731Z,98755.75
2019-03-18T22:10:20.843Z,98752.25
2019-03-18T22:12:52.840Z,98751.91
2019-03-18T22:15:24.857Z,98757.17
2019-03-18T22:17:56.839Z,98755.98
2019-03-18T22:20:28.821Z,98754.03
2019-03-18T22:23:00.885Z,98754.25
2019-03-18T22:25:34.723Z,98758.25
2019-03-18T22:28:06.806Z,98764.73
2019-03-18T22:30:41.105Z,98764.64
2019-03-18T22:33:13.105Z,98762.58
2019-03-18T22:35:46.335Z,98759.20
2019-03-18T22:38:18.334Z,98754.91
2019-03-18T22:40:50.295Z,98760.62
2019-03-18T22:43:22.279Z,98761.41
2019-03-18T22:45:54.253Z,98767.73
2019-03-18T22:48:26.263Z,98767.82
2019-03-18T22:50:58.223Z,98767.95
2019-03-18T22:53:30.194Z,98774.81
2019-03-18T22:56:02.165Z,98769.69
2019-03-18T22:58:35.972Z,98765.91
2019-03-18T23:01:13.303Z,98760.30
2019-03-18T23:03:45.320Z,98772.49
2019-03-18T23:06:17.429Z,98770.55
2019-03-18T23:08:50.541Z,98763.79
2019-03-18T23:11:22.523Z,98766.48
2019-03-18T23:13:54.515Z,98763.59
2019-03-18T23:16:26.489Z,98764.95
2019-03-18T23:18:58.490Z,98770.41
2019-03-18T23:21:30.459Z,98767.47
2019-03-18T23:24:02.407Z,98761.88
2019-03-18T23:26:34.539Z,98767.38
2019-03-18T23:29:06.567Z,98766.92
2019-03-18T23:31:40.395Z,98772.08
2019-03-18T23:34:12.412Z,98770.25
2019-03-18T23:36:47.172Z,98772.64
2019-03-18T23:39:19.205Z,98775.96
2019-03-18T23:41:51.230Z,98771.88
2019-03-18T23:44:24.450Z,98775.91
2019-03-18T23:46:57.557Z,98776.25
2019-03-18T23:49:32.481Z,98771.81
2019-03-18T23:52:04.549Z,98772.67
2019-03-18T23:54:36.533Z,98775.84
2019-03-18T23:57:08.525Z,98777.95
2019-03-18T23:59:40.534Z,98774.47
